createdAt,value
2023-05-05T00:01:00.973Z,11.82
2023-05-05T00:03:29.354Z,11.83
2023-05-05T00:05:57.671Z,11.77
2023-05-05T00:08:26.033Z,11.76
2023-05-05T00:10:56.098Z,11.68
2023-05-05T00:13:25.981Z,11.64
2023-05-05T00:15:54.738Z,11.54
2023-05-05T00:18:23.036Z,11.57
2023-05-05T00:20:51.642Z,11.57
2023-05-05T00:23:21.179Z,11.48
2023-05-05T00:25:49.429Z,11.53
2023-05-05T00:28:17.579Z,11.44
2023-05-05T00:30:47.103Z,11.39
2023-05-05T00:33:15.311Z,11.36
2023-05-05T00:35:43.670Z,11.29
2023-05-05T00:38:11.873Z,11.24
2023-05-05T00:40:40.014Z,11.20
2023-05-05T00:43:08.395Z,11.15
2023-05-05T00:45:39.153Z,11.18
2023-05-05T00:48:09.467Z,11.20
2023-05-05T00:50:38.448Z,11.12
2023-05-05T00:53:08.072Z,11.03
2023-05-05T00:55:36.715Z,11.01
2023-05-05T00:58:05.265Z,10.91
2023-05-05T01:00:34.361Z,10.89
2023-05-05T01:03:03.425Z,10.83
2023-05-05T01:05:43.615Z,10.74
2023-05-05T01:08:27.627Z,10.69
2023-05-05T01:11:03.276Z,10.61
2023-05-05T01:13:43.552Z,10.57
2023-05-05T01:16:16.552Z,10.53
2023-05-05T01:18:50.642Z,10.45
2023-05-05T01:21:27.185Z,10.40
2023-05-05T01:24:21.160Z,10.31
2023-05-05T01:26:59.476Z,10.28
2023-05-05T01:29:39.044Z,10.20
2023-05-05T01:32:11.041Z,10.15
2023-05-05T01:34:45.464Z,10.13
2023-05-05T01:37:19.859Z,10.07
2023-05-05T01:39:53.062Z,10.01
2023-05-05T01:42:22.518Z,9.97
2023-05-05T01:44:53.131Z,9.89
2023-05-05T01:47:24.348Z,9.80
2023-05-05T01:49:53.572Z,9.77
2023-05-05T01:52:23.110Z,9.71
2023-05-05T01:54:53.857Z,9.67
2023-05-05T01:57:25.283Z,9.62
2023-05-05T01:59:54.944Z,9.62
2023-05-05T02:02:25.556Z,9.63
2023-05-05T02:04:55.898Z,9.61
2023-05-05T02:07:25.625Z,9.63
2023-05-05T02:09:54.463Z,9.63
2023-05-05T02:12:24.367Z,9.61
2023-05-05T02:14:53.472Z,9.64
2023-05-05T02:17:24.325Z,9.56
2023-05-05T02:19:55.733Z,9.66
2023-05-05T02:22:24.007Z,9.66
2023-05-05T02:24:52.369Z,9.64
2023-05-05T02:27:22.995Z,9.68
2023-05-05T02:29:55.325Z,9.69
2023-05-05T02:32:29.012Z,9.61
2023-05-05T02:35:02.892Z,9.54
2023-05-05T02:37:33.353Z,9.52
2023-05-05T02:40:03.998Z,9.44
2023-05-05T02:42:36.943Z,9.53
2023-05-05T02:45:11.397Z,9.54
2023-05-05T02:47:40.059Z,9.54
2023-05-05T02:50:11.186Z,9.46
2023-05-05T02:52:39.744Z,9.38
2023-05-05T02:55:08.742Z,9.30
2023-05-05T02:57:42.578Z,9.37
2023-05-05T03:00:19.250Z,9.24
2023-05-05T03:02:56.578Z,9.28
2023-05-05T03:05:35.200Z,9.24
2023-05-05T03:08:08.739Z,9.25
2023-05-05T03:10:45.455Z,9.34
2023-05-05T03:13:15.848Z,9.36
2023-05-05T03:15:48.314Z,9.38
2023-05-05T03:18:18.135Z,9.46
2023-05-05T03:20:48.710Z,9.42
2023-05-05T03:23:18.431Z,9.31
2023-05-05T03:25:47.916Z,9.33
2023-05-05T03:28:16.320Z,9.32
2023-05-05T03:30:44.568Z,9.29
2023-05-05T03:33:13.017Z,9.24
2023-05-05T03:35:41.118Z,9.16
2023-05-05T03:38:10.645Z,9.17
2023-05-05T03:40:44.301Z,9.24
2023-05-05T03:43:12.890Z,9.41
2023-05-05T03:45:40.996Z,9.56
2023-05-05T03:48:09.879Z,9.67
2023-05-05T03:50:38.012Z,10.34
2023-05-05T03:53:06.102Z,11.21
2023-05-05T03:55:35.617Z,11.88
2023-05-05T03:58:03.737Z,12.39
2023-05-05T04:00:31.853Z,12.82
2023-05-05T04:03:00.091Z,13.17
2023-05-05T04:05:28.266Z,13.57
2023-05-05T04:07:57.962Z,14.46
2023-05-05T04:10:26.270Z,15.43
2023-05-05T04:12:55.923Z,16.61
2023-05-05T04:15:24.098Z,17.18
2023-05-05T04:17:52.224Z,17.24
2023-05-05T04:20:20.589Z,18.17
2023-05-05T04:22:49.845Z,18.01
2023-05-05T04:25:19.466Z,17.46
2023-05-05T04:27:47.633Z,16.86
2023-05-05T04:30:17.268Z,16.43
2023-05-05T04:32:45.416Z,16.59
2023-05-05T04:35:13.628Z,16.20
2023-05-05T04:37:41.806Z,15.44
2023-05-05T04:40:11.043Z,16.15
2023-05-05T04:42:39.715Z,16.52
2023-05-05T04:45:09.846Z,16.45
2023-05-05T04:47:42.408Z,17.41
2023-05-05T04:50:11.829Z,18.11
2023-05-05T04:52:40.037Z,18.39
2023-05-05T04:55:10.474Z,18.98
2023-05-05T04:57:38.670Z,19.36
2023-05-05T05:00:09.838Z,19.31
2023-05-05T05:02:38.840Z,19.43
2023-05-05T05:05:09.709Z,19.86
2023-05-05T05:07:37.854Z,20.38
2023-05-05T05:10:07.134Z,21.17
2023-05-05T05:12:35.590Z,22.10
2023-05-05T05:15:03.793Z,23.23
2023-05-05T05:17:31.961Z,23.59
2023-05-05T05:20:04.802Z,24.70
2023-05-05T05:22:35.057Z,25.04
2023-05-05T05:25:03.198Z,26.54
2023-05-05T05:27:31.537Z,27.27
2023-05-05T05:29:59.582Z,26.83
2023-05-05T05:32:27.777Z,27.36
2023-05-05T05:34:55.911Z,28.10
2023-05-05T05:37:23.998Z,26.60
2023-05-05T05:39:57.048Z,26.72
2023-05-05T05:42:25.126Z,26.75
2023-05-05T05:44:53.204Z,28.01
2023-05-05T05:47:21.260Z,28.12
2023-05-05T05:49:49.350Z,26.60
2023-05-05T05:52:19.766Z,27.23
2023-05-05T05:54:47.863Z,26.75
2023-05-05T05:57:17.441Z,26.06
2023-05-05T05:59:45.612Z,25.36
2023-05-05T06:02:13.746Z,25.47
2023-05-05T06:04:41.847Z,25.36
2023-05-05T06:07:10.307Z,25.03
2023-05-05T06:09:38.496Z,24.87
2023-05-05T06:12:06.979Z,24.36
2023-05-05T06:14:36.607Z,23.67
2023-05-05T06:17:04.781Z,22.96
2023-05-05T06:19:33.306Z,22.83
2023-05-05T06:22:01.470Z,22.53
2023-05-05T06:24:29.564Z,23.84
2023-05-05T06:26:59.447Z,23.15
2023-05-05T06:29:28.254Z,23.40
2023-05-05T06:31:57.792Z,23.64
2023-05-05T06:34:25.966Z,22.87
2023-05-05T06:36:54.187Z,23.32
2023-05-05T06:39:22.357Z,22.60
2023-05-05T06:41:50.419Z,23.29
2023-05-05T06:44:18.584Z,22.99
2023-05-05T06:46:46.703Z,23.24
2023-05-05T06:49:16.424Z,23.20
2023-05-05T06:51:44.517Z,22.58
2023-05-05T06:54:12.851Z,22.96
2023-05-05T06:56:41.267Z,22.08
2023-05-05T06:59:09.338Z,21.91
2023-05-05T07:01:37.500Z,21.91
2023-05-05T07:04:06.383Z,22.07
2023-05-05T07:06:38.882Z,21.66
2023-05-05T07:09:06.917Z,21.28
2023-05-05T07:11:35.211Z,21.38
2023-05-05T07:14:07.723Z,21.74
2023-05-05T07:16:41.544Z,21.38
2023-05-05T07:19:09.698Z,20.89
2023-05-05T07:21:41.973Z,20.96
2023-05-05T07:24:10.303Z,20.56
2023-05-05T07:26:38.374Z,20.27
2023-05-05T07:29:07.393Z,19.92
2023-05-05T07:31:37.375Z,19.95
2023-05-05T07:34:05.474Z,20.23
2023-05-05T07:36:35.490Z,20.36
2023-05-05T07:39:05.309Z,20.80
2023-05-05T07:41:33.376Z,20.68
2023-05-05T07:44:01.709Z,20.80
2023-05-05T07:46:29.933Z,20.74
2023-05-05T07:49:00.843Z,20.56
2023-05-05T07:51:29.034Z,20.37
2023-05-05T07:53:57.214Z,20.48
2023-05-05T07:56:26.946Z,20.85
2023-05-05T07:58:55.181Z,20.98
2023-05-05T08:01:23.246Z,20.99
2023-05-05T08:03:51.473Z,20.99
2023-05-05T08:06:22.324Z,20.76
2023-05-05T08:08:51.051Z,20.59
2023-05-05T08:11:19.310Z,20.52
2023-05-05T08:13:49.615Z,20.68
2023-05-05T08:16:21.069Z,21.02
2023-05-05T08:18:49.294Z,20.82
2023-05-05T08:21:18.573Z,20.74
2023-05-05T08:23:46.655Z,20.95
2023-05-05T08:26:14.818Z,20.91
2023-05-05T08:28:42.911Z,21.05
2023-05-05T08:31:12.535Z,21.23
2023-05-05T08:33:40.672Z,20.79
2023-05-05T08:36:09.013Z,20.58
2023-05-05T08:38:38.123Z,20.73
2023-05-05T08:41:09.656Z,20.71
2023-05-05T08:43:37.873Z,20.39
2023-05-05T08:46:06.634Z,20.35
2023-05-05T08:48:37.590Z,20.48
2023-05-05T08:51:08.047Z,20.64
2023-05-05T08:53:47.109Z,20.77
2023-05-05T08:56:15.688Z,20.86
2023-05-05T08:58:44.652Z,20.78
2023-05-05T09:01:14.298Z,21.13
2023-05-05T09:03:44.591Z,21.33
2023-05-05T09:06:13.130Z,21.41
2023-05-05T09:08:43.122Z,21.10
2023-05-05T09:11:11.569Z,21.04
2023-05-05T09:16:25.388Z,21.22
2023-05-05T09:19:04.474Z,21.30
2023-05-05T09:21:34.997Z,21.45
2023-05-05T09:24:13.213Z,20.81
2023-05-05T09:26:43.466Z,20.88
2023-05-05T09:29:11.633Z,20.98
2023-05-05T09:31:42.696Z,21.20
2023-05-05T09:34:18.234Z,21.33
2023-05-05T09:36:52.538Z,21.31
2023-05-05T09:39:21.538Z,21.42
2023-05-05T09:41:49.720Z,21.65
2023-05-05T09:44:17.970Z,21.46
2023-05-05T09:46:52.544Z,21.59
2023-05-05T09:49:25.614Z,21.84
2023-05-05T09:51:58.628Z,21.76
2023-05-05T09:54:27.752Z,21.88
2023-05-05T09:56:56.561Z,22.08
2023-05-05T09:59:25.607Z,22.23
2023-05-05T10:01:53.921Z,22.14
2023-05-05T10:04:28.197Z,22.20
2023-05-05T10:06:56.986Z,21.98
2023-05-05T10:09:25.452Z,22.08
2023-05-05T10:11:54.040Z,22.12
2023-05-05T10:14:25.466Z,21.68
2023-05-05T10:16:55.118Z,21.86
2023-05-05T10:19:24.445Z,21.47
2023-05-05T10:21:55.913Z,21.17
2023-05-05T10:24:40.086Z,21.32
2023-05-05T10:27:14.134Z,21.17
2023-05-05T10:29:49.432Z,21.07
2023-05-05T10:32:47.452Z,21.55
2023-05-05T10:35:21.001Z,21.89
2023-05-05T10:37:50.691Z,21.73
2023-05-05T10:40:19.225Z,22.12
2023-05-05T10:42:49.003Z,22.36
2023-05-05T10:45:17.267Z,22.30
2023-05-05T10:47:45.667Z,22.60
2023-05-05T10:50:21.729Z,22.39
2023-05-05T10:53:13.041Z,22.39
2023-05-05T10:55:45.941Z,22.59
2023-05-05T10:58:38.491Z,22.77
2023-05-05T11:01:12.120Z,22.90
2023-05-05T11:03:40.395Z,22.76
2023-05-05T11:06:13.732Z,22.86
2023-05-05T11:08:44.808Z,23.08
2023-05-05T11:11:14.196Z,23.18
2023-05-05T11:13:42.865Z,23.37
2023-05-05T11:16:45.209Z,23.19
2023-05-05T11:19:46.854Z,23.03
2023-05-05T11:22:16.575Z,22.65
2023-05-05T11:24:47.395Z,22.57
2023-05-05T11:27:15.507Z,22.79
2023-05-05T11:30:09.910Z,22.73
2023-05-05T11:32:38.309Z,22.73
2023-05-05T11:35:08.930Z,22.88
2023-05-05T11:37:39.696Z,23.09
2023-05-05T11:40:23.019Z,23.25
2023-05-05T11:42:51.435Z,22.96
2023-05-05T11:45:24.156Z,22.77
2023-05-05T11:47:52.382Z,22.57
2023-05-05T11:50:23.580Z,22.90
2023-05-05T11:52:52.044Z,22.80
2023-05-05T11:55:24.757Z,22.90
2023-05-05T11:57:52.878Z,23.11
2023-05-05T12:00:21.493Z,22.95
2023-05-05T12:02:58.612Z,23.12
2023-05-05T12:05:27.087Z,23.24
2023-05-05T12:07:58.757Z,23.20
2023-05-05T12:10:28.999Z,23.59
2023-05-05T12:12:57.445Z,23.43
2023-05-05T12:15:33.624Z,23.32
2023-05-05T12:18:03.420Z,23.09
2023-05-05T12:20:33.457Z,23.16
2023-05-05T12:23:03.298Z,23.42
2023-05-05T12:25:40.423Z,23.50
2023-05-05T12:28:09.702Z,23.33
2023-05-05T12:30:38.036Z,23.30
2023-05-05T12:33:07.432Z,23.50
2023-05-05T12:35:36.090Z,23.73
2023-05-05T12:38:04.475Z,23.76
2023-05-05T12:40:48.126Z,23.40
2023-05-05T12:43:33.356Z,23.36
2023-05-05T12:46:09.546Z,23.63
2023-05-05T12:48:39.478Z,23.55
2023-05-05T12:51:20.164Z,23.53
2023-05-05T12:53:49.386Z,23.93
2023-05-05T12:56:39.191Z,24.04
2023-05-05T12:59:08.872Z,24.40
2023-05-05T13:01:38.085Z,24.45
2023-05-05T13:04:12.193Z,24.65
2023-05-05T13:06:41.400Z,24.49
2023-05-05T13:09:10.451Z,24.23
2023-05-05T13:11:40.721Z,24.18
2023-05-05T13:14:09.578Z,24.17
2023-05-05T13:16:37.819Z,24.43
2023-05-05T13:19:08.312Z,24.36
2023-05-05T13:21:36.484Z,24.42
2023-05-05T13:24:23.018Z,24.28
2023-05-05T13:26:54.673Z,24.45
2023-05-05T13:29:26.099Z,24.15
2023-05-05T13:31:56.605Z,23.49
2023-05-05T13:34:24.849Z,23.59
2023-05-05T13:36:53.451Z,23.22
2023-05-05T13:39:21.506Z,23.38
2023-05-05T13:41:49.686Z,23.48
2023-05-05T13:44:19.199Z,23.35
2023-05-05T13:46:47.359Z,23.13
2023-05-05T13:49:15.715Z,22.34
2023-05-05T13:51:43.949Z,22.46
2023-05-05T13:54:12.000Z,22.65
2023-05-05T13:56:40.316Z,22.55
2023-05-05T13:59:08.450Z,22.33
2023-05-05T14:01:38.124Z,22.27
2023-05-05T14:04:06.470Z,22.46
2023-05-05T14:06:35.870Z,22.44
2023-05-05T14:09:06.421Z,22.22
2023-05-05T14:11:35.067Z,22.17
2023-05-05T14:14:09.426Z,22.37
2023-05-05T14:16:39.078Z,22.76
2023-05-05T14:19:07.266Z,22.98
2023-05-05T14:21:35.580Z,22.64
2023-05-05T14:24:03.794Z,22.81
2023-05-05T14:26:32.030Z,22.91
2023-05-05T14:29:00.189Z,22.99
2023-05-05T14:31:28.838Z,22.92
2023-05-05T14:33:58.605Z,22.83
2023-05-05T14:36:27.024Z,22.75
2023-05-05T14:38:55.419Z,22.52
2023-05-05T14:41:23.730Z,22.31
2023-05-05T14:43:51.825Z,22.53
2023-05-05T14:46:20.021Z,22.04
2023-05-05T14:48:48.545Z,22.17
2023-05-05T14:51:18.069Z,22.27
2023-05-05T14:53:46.707Z,22.18
2023-05-05T14:56:14.792Z,22.30
2023-05-05T14:58:43.108Z,22.47
2023-05-05T15:01:11.381Z,22.42
2023-05-05T15:03:39.695Z,22.44
2023-05-05T15:06:08.846Z,22.18
2023-05-05T15:08:39.196Z,22.32
2023-05-05T15:11:07.701Z,22.47
2023-05-05T15:13:38.655Z,22.42
2023-05-05T15:16:07.579Z,22.28
2023-05-05T15:18:35.920Z,22.06
2023-05-05T15:21:04.808Z,21.88
2023-05-05T15:23:32.930Z,21.73
2023-05-05T15:26:02.740Z,21.79
2023-05-05T15:28:30.755Z,21.69
2023-05-05T15:31:01.990Z,21.57
2023-05-05T15:33:31.123Z,21.57
2023-05-05T15:35:59.317Z,21.65
2023-05-05T15:38:29.169Z,21.56
2023-05-05T15:40:57.215Z,21.72
2023-05-05T15:43:26.958Z,21.80
2023-05-05T15:45:55.499Z,21.89
2023-05-05T15:48:23.502Z,21.77
2023-05-05T15:50:51.671Z,21.66
2023-05-05T15:53:19.753Z,21.64
2023-05-05T15:55:47.882Z,21.62
2023-05-05T15:58:16.014Z,21.55
2023-05-05T16:00:46.479Z,21.46
2023-05-05T16:03:14.670Z,21.35
2023-05-05T16:05:42.997Z,21.33
2023-05-05T16:08:11.143Z,21.36
2023-05-05T16:10:39.246Z,21.38
2023-05-05T16:13:07.402Z,21.43
2023-05-05T16:15:36.064Z,21.24
2023-05-05T16:18:05.738Z,21.04
2023-05-05T16:20:33.965Z,20.89
2023-05-05T16:23:02.192Z,20.81
2023-05-05T16:25:30.273Z,20.79
2023-05-05T16:28:00.272Z,20.63
2023-05-05T16:30:29.405Z,20.60
2023-05-05T16:32:57.601Z,20.48
2023-05-05T16:35:27.131Z,20.35
2023-05-05T16:37:55.249Z,20.31
2023-05-05T16:40:23.591Z,20.35
2023-05-05T16:42:51.658Z,20.22
2023-05-05T16:45:19.708Z,20.14
2023-05-05T16:47:47.857Z,20.17
2023-05-05T16:50:17.421Z,20.07
2023-05-05T16:52:47.039Z,20.02
2023-05-05T16:55:15.367Z,20.01
2023-05-05T16:57:43.560Z,19.95
2023-05-05T17:00:12.757Z,19.91
2023-05-05T17:02:40.835Z,19.83
2023-05-05T17:05:09.931Z,19.76
2023-05-05T17:07:38.350Z,19.72
2023-05-05T17:10:09.770Z,19.67
2023-05-05T17:12:37.847Z,19.62
2023-05-05T17:15:07.160Z,19.56
2023-05-05T17:17:35.431Z,19.48
2023-05-05T17:20:04.928Z,19.39
2023-05-05T17:22:33.541Z,19.29
2023-05-05T17:25:01.712Z,19.21
2023-05-05T17:27:31.194Z,19.07
2023-05-05T17:29:59.415Z,19.01
2023-05-05T17:32:27.636Z,18.93
2023-05-05T17:34:56.414Z,18.78
2023-05-05T17:37:24.616Z,18.67
2023-05-05T17:39:55.444Z,18.51
2023-05-05T17:42:23.802Z,18.33
2023-05-05T17:44:53.228Z,18.18
2023-05-05T17:47:22.738Z,17.99
2023-05-05T17:49:50.901Z,17.87
2023-05-05T17:52:19.011Z,17.69
2023-05-05T17:54:48.795Z,17.45
2023-05-05T17:57:17.111Z,17.28
2023-05-05T17:59:45.596Z,17.17
2023-05-05T18:02:15.322Z,16.96
2023-05-05T18:04:43.752Z,16.80
2023-05-05T18:07:12.331Z,16.67
2023-05-05T18:09:40.579Z,16.53
2023-05-05T18:12:08.877Z,16.41
2023-05-05T18:14:36.951Z,16.30
2023-05-05T18:17:05.162Z,16.13
2023-05-05T18:19:34.663Z,16.06
2023-05-05T18:22:02.812Z,15.99
2023-05-05T18:24:31.909Z,15.87
2023-05-05T18:27:00.130Z,15.71
2023-05-05T18:29:29.126Z,15.61
2023-05-05T18:31:57.235Z,15.56
2023-05-05T18:34:25.420Z,15.53
2023-05-05T18:36:55.466Z,15.64
2023-05-05T18:39:23.699Z,15.76
2023-05-05T18:41:51.934Z,15.76
2023-05-05T18:44:20.433Z,15.79
2023-05-05T18:46:49.140Z,15.79
2023-05-05T18:49:18.088Z,15.75
2023-05-05T18:51:46.246Z,15.62
2023-05-05T18:54:15.834Z,15.51
2023-05-05T18:56:44.156Z,15.56
2023-05-05T18:59:12.398Z,15.50
2023-05-05T19:01:41.883Z,15.53
2023-05-05T19:04:26.628Z,15.62
2023-05-05T19:06:58.113Z,15.61
2023-05-05T19:09:27.863Z,15.56
2023-05-05T19:11:56.321Z,15.48
2023-05-05T19:14:24.557Z,15.39
2023-05-05T19:16:55.852Z,15.32
2023-05-05T19:19:24.086Z,15.24
2023-05-05T19:21:52.487Z,15.18
2023-05-05T19:24:20.619Z,15.18
2023-05-05T19:26:50.440Z,15.13
2023-05-05T19:29:18.815Z,15.02
2023-05-05T19:31:47.082Z,15.05
2023-05-05T19:34:15.682Z,15.16
2023-05-05T19:36:43.865Z,15.17
2023-05-05T19:39:13.704Z,15.18
2023-05-05T19:41:43.350Z,15.17
2023-05-05T19:44:13.142Z,15.18
2023-05-05T19:46:41.381Z,15.22
2023-05-05T19:49:09.943Z,15.21
2023-05-05T19:51:38.056Z,15.07
2023-05-05T19:54:07.231Z,14.95
2023-05-05T19:56:35.442Z,14.81
2023-05-05T19:59:06.488Z,14.76
2023-05-05T20:01:36.640Z,14.64
2023-05-05T20:04:05.031Z,14.45
2023-05-05T20:06:33.528Z,14.35
2023-05-05T20:09:02.103Z,14.21
2023-05-05T20:11:30.486Z,14.10
2023-05-05T20:13:58.915Z,13.92
2023-05-05T20:16:27.225Z,13.67
2023-05-05T20:18:57.391Z,13.65
2023-05-05T20:21:25.584Z,13.65
2023-05-05T20:23:54.660Z,13.58
2023-05-05T20:26:24.539Z,13.55
2023-05-05T20:28:52.684Z,13.52
2023-05-05T20:31:21.122Z,13.48
2023-05-05T20:33:49.480Z,13.43
2023-05-05T20:36:19.738Z,13.33
2023-05-05T20:38:47.960Z,13.19
2023-05-05T20:41:16.086Z,13.06
2023-05-05T20:43:44.321Z,13.04
2023-05-05T20:46:13.360Z,13.08
2023-05-05T20:48:42.874Z,13.12
2023-05-05T20:51:11.712Z,13.16
2023-05-05T20:53:41.408Z,13.15
2023-05-05T20:56:09.500Z,13.09
2023-05-05T20:58:37.550Z,12.98
2023-05-05T21:01:05.717Z,12.89
2023-05-05T21:03:33.805Z,12.80
2023-05-05T21:06:03.225Z,12.71
2023-05-05T21:08:31.476Z,12.64
2023-05-05T21:11:01.011Z,12.58
2023-05-05T21:13:29.364Z,12.63
2023-05-05T21:15:57.465Z,12.57
2023-05-05T21:18:27.305Z,12.48
2023-05-05T21:20:55.401Z,12.43
2023-05-05T21:23:23.549Z,12.47
2023-05-05T21:25:51.609Z,12.49
2023-05-05T21:28:21.166Z,12.43
2023-05-05T21:31:10.165Z,12.37
2023-05-05T21:33:39.281Z,12.27
2023-05-05T21:36:07.713Z,12.20
2023-05-05T21:38:35.964Z,12.19
2023-05-05T21:41:03.995Z,12.18
2023-05-05T21:43:33.453Z,12.17
2023-05-05T21:46:01.598Z,12.07
2023-05-05T21:48:29.830Z,12.03
2023-05-05T21:50:58.096Z,11.89
2023-05-05T21:53:26.258Z,11.87
2023-05-05T21:55:54.349Z,11.80
2023-05-05T21:58:26.451Z,11.79
2023-05-05T22:00:56.547Z,11.77
2023-05-05T22:03:24.793Z,11.82
2023-05-05T22:05:53.045Z,11.77
2023-05-05T22:08:21.142Z,11.69
2023-05-05T22:10:49.235Z,11.59
2023-05-05T22:13:17.531Z,11.49
2023-05-05T22:15:47.206Z,11.43
2023-05-05T22:18:17.220Z,11.46
2023-05-05T22:20:45.458Z,11.46
2023-05-05T22:23:14.287Z,11.44
2023-05-05T22:25:42.359Z,11.33
2023-05-05T22:28:10.482Z,11.32
2023-05-05T22:30:38.756Z,11.25
2023-05-05T22:33:07.448Z,11.20
2023-05-05T22:35:38.491Z,11.12
2023-05-05T22:38:07.131Z,10.96
2023-05-05T22:40:35.373Z,10.97
2023-05-05T22:43:03.586Z,10.93
2023-05-05T22:45:31.636Z,10.93
2023-05-05T22:47:59.852Z,10.90
2023-05-05T22:50:30.566Z,10.91
2023-05-05T22:53:00.109Z,10.89
2023-05-05T22:55:28.252Z,10.87
2023-05-05T22:57:56.636Z,10.80
2023-05-05T23:00:24.957Z,10.74
2023-05-05T23:02:53.359Z,10.66
2023-05-05T23:05:21.635Z,10.73
2023-05-05T23:07:49.830Z,10.69
2023-05-05T23:10:19.636Z,10.63
2023-05-05T23:12:47.870Z,10.63
2023-05-05T23:15:15.981Z,10.57
2023-05-05T23:17:44.076Z,10.58
2023-05-05T23:20:13.368Z,10.56
2023-05-05T23:22:41.392Z,10.59
2023-05-05T23:25:10.313Z,10.83
2023-05-05T23:27:41.393Z,10.62
2023-05-05T23:30:10.842Z,10.51
2023-05-05T23:32:38.994Z,10.42
2023-05-05T23:35:08.247Z,10.34
2023-05-05T23:37:36.675Z,10.28
2023-05-05T23:40:05.280Z,10.24
2023-05-05T23:42:33.451Z,10.26
2023-05-05T23:45:02.945Z,10.20
2023-05-05T23:47:31.113Z,10.21
2023-05-05T23:49:59.280Z,10.19
2023-05-05T23:52:27.964Z,10.18
2023-05-05T23:54:56.337Z,10.11
2023-05-05T23:57:24.392Z,10.16
2023-05-05T23:59:52.502Z,10.11
